Time,TemperatureF,DewpointF,PressureIn,WindDirection,WindDirectionDegrees,WindSpeedMPH,WindSpeedGustMPH,Humidity,HourlyPrecipIn,Conditions,Clouds,dailyrainin,SoftwareType,DateUTC
2013-08-16 00:01:00,65.7,63.3,30.07,NE,46,12.0,13.0,92,0.00,,---,0.00,VWS V14.01,2013-08-16 04:01:00,
2013-08-16 00:02:00,65.7,63.6,30.07,NE,44,10.0,13.0,93,0.00,,---,0.00,VWS V14.01,2013-08-16 04:02:00,
2013-08-16 00:08:00,65.7,63.3,30.07,NNE,32,6.0,13.0,92,0.00,,---,0.00,VWS V14.01,2013-08-16 04:08:00,
2013-08-16 00:13:00,65.8,63.7,30.07,NE,35,11.0,14.0,93,0.00,,---,0.00,VWS V14.01,2013-08-16 04:13:00,
2013-08-16 00:18:00,66.0,63.9,30.06,NNE,33,13.0,15.0,93,0.00,,---,0.00,VWS V14.01,2013-08-16 04:18:00,
2013-08-16 00:23:00,65.9,63.8,30.06,NE,43,10.0,16.0,93,0.00,,---,0.00,VWS V14.01,2013-08-16 04:23:00,
2013-08-16 00:28:00,66.0,63.9,30.06,NE,38,13.0,14.0,93,0.00,,---,0.00,VWS V14.01,2013-08-16 04:28:00,
2013-08-16 00:33:00,66.0,63.9,30.06,NE,44,9.0,14.0,93,0.00,,---,0.00,VWS V14.01,2013-08-16 04:33:00,
2013-08-16 00:38:00,66.0,63.9,30.06,NNE,28,10.0,14.0,93,0.00,,---,0.00,VWS V14.01,2013-08-16 04:38:00,
2013-08-16 00:43:00,66.1,64.0,30.06,NE,43,10.0,14.0,93,0.00,,---,0.00,VWS V14.01,2013-08-16 04:43:00,
2013-08-16 00:48:00,66.1,64.0,30.06,NE,44,11.0,14.0,93,0.00,,---,0.00,VWS V14.01,2013-08-16 04:48:00,
2013-08-16 00:53:00,66.2,64.1,30.06,NE,42,10.0,14.0,93,0.00,,---,0.00,VWS V14.01,2013-08-16 04:53:00,
2013-08-16 00:58:00,66.1,64.0,30.06,NNE,32,11.0,11.0,93,0.00,,---,0.00,VWS V14.01,2013-08-16 04:58:00,
2013-08-16 01:03:00,66.2,64.1,30.06,NE,53,8.0,11.0,93,0.00,,---,0.00,VWS V14.01,2013-08-16 05:03:00,
2013-08-16 01:09:00,66.2,64.1,30.05,NE,56,9.0,12.0,93,0.00,,---,0.00,VWS V14.01,2013-08-16 05:09:00,
2013-08-16 01:14:00,66.2,64.1,30.05,NE,36,9.0,12.0,93,0.00,,---,0.00,VWS V14.01,2013-08-16 05:14:00,
2013-08-16 01:19:00,66.2,64.4,30.05,NE,38,11.0,12.0,94,0.00,,---,0.00,VWS V14.01,2013-08-16 05:19:00,
2013-08-16 01:24:00,66.2,64.4,30.06,NNE,28,10.0,13.0,94,0.00,,---,0.00,VWS V14.01,2013-08-16 05:24:00,
2013-08-16 01:32:00,66.2,64.4,30.05,NNE,18,9.0,10.0,94,0.00,,---,0.00,VWS V14.01,2013-08-16 05:32:00,
2013-08-16 01:38:00,66.1,64.3,30.05,NE,34,6.0,11.0,94,0.00,,---,0.00,VWS V14.01,2013-08-16 05:38:00,
2013-08-16 01:43:00,66.0,64.2,30.05,NNE,13,8.0,11.0,94,0.00,,---,0.00,VWS V14.01,2013-08-16 05:43:00,
2013-08-16 01:48:00,66.0,64.2,30.05,NNE,21,5.0,11.0,94,0.00,,---,0.00,VWS V14.01,2013-08-16 05:48:00,
2013-08-16 01:53:00,66.1,64.3,30.05,NNE,16,7.0,11.0,94,0.00,,---,0.00,VWS V14.01,2013-08-16 05:53:00,
2013-08-16 01:58:00,66.2,64.7,30.05,NNE,13,7.0,9.0,95,0.00,,---,0.00,VWS V14.01,2013-08-16 05:58:00,
2013-08-16 02:03:00,65.9,64.1,30.05,NNE,20,7.0,11.0,94,0.00,,---,0.00,VWS V14.01,2013-08-16 06:03:00,
2013-08-16 02:08:00,66.3,64.8,30.04,NNE,15,11.0,12.0,95,0.00,,---,0.00,VWS V14.01,2013-08-16 06:08:00,
2013-08-16 02:13:00,66.1,64.6,30.04,NNE,19,10.0,13.0,95,0.00,,---,0.00,VWS V14.01,2013-08-16 06:13:00,
2013-08-16 02:18:00,66.0,64.5,30.04,NNE,24,12.0,13.0,95,0.00,,---,0.00,VWS V14.01,2013-08-16 06:18:00,
2013-08-16 02:23:00,66.1,64.6,30.04,NNE,22,9.0,13.0,95,0.00,,---,0.00,VWS V14.01,2013-08-16 06:23:00,
2013-08-16 02:28:00,65.8,64.3,30.04,North,11,9.0,14.0,95,0.00,,---,0.00,VWS V14.01,2013-08-16 06:28:00,
2013-08-16 02:33:00,65.9,64.4,30.04,NNE,17,10.0,14.0,95,0.00,,---,0.00,VWS V14.01,2013-08-16 06:33:00,
2013-08-16 02:38:00,65.9,64.4,30.03,NE,34,11.0,14.0,95,0.00,,---,0.00,VWS V14.01,2013-08-16 06:38:00,
2013-08-16 02:43:00,66.0,64.5,30.03,NNE,28,7.0,14.0,95,0.00,,---,0.00,VWS V14.01,2013-08-16 06:43:00,
2013-08-16 02:49:00,66.1,64.6,30.03,NNE,28,11.0,14.0,95,0.00,,---,0.00,VWS V14.01,2013-08-16 06:49:00,
2013-08-16 02:54:00,66.0,64.5,30.03,North,5,10.0,14.0,95,0.00,,---,0.00,VWS V14.01,2013-08-16 06:54:00,
2013-08-16 02:59:00,66.0,64.5,30.03,North,360,9.0,12.0,95,0.00,,---,0.00,VWS V14.01,2013-08-16 06:59:00,
2013-08-16 03:04:00,66.0,64.5,30.03,North,5,11.0,14.0,95,0.00,,---,0.00,VWS V14.01,2013-08-16 07:04:00,
2013-08-16 03:09:00,65.9,64.4,30.03,NE,53,12.0,14.0,95,0.00,,---,0.00,VWS V14.01,2013-08-16 07:09:00,
2013-08-16 03:14:00,66.1,64.6,30.03,NNE,16,12.0,15.0,95,0.00,,---,0.00,VWS V14.01,2013-08-16 07:14:00,
2013-08-16 03:19:00,66.1,64.6,30.03,NNE,26,11.0,15.0,95,0.00,,---,0.00,VWS V14.01,2013-08-16 07:19:00,
2013-08-16 03:24:00,66.2,64.7,30.03,NNE,26,8.0,15.0,95,0.00,,---,0.00,VWS V14.01,2013-08-16 07:24:00,
2013-08-16 03:29:00,66.1,64.6,30.03,NNE,14,9.0,11.0,95,0.00,,---,0.00,VWS V14.01,2013-08-16 07:29:00,
2013-08-16 03:34:00,66.3,64.8,30.03,NNW,346,10.0,14.0,95,0.00,,---,0.00,VWS V14.01,2013-08-16 07:34:00,
2013-08-16 03:39:00,66.3,64.8,30.03,North,11,10.0,14.0,95,0.00,,---,0.00,VWS V14.01,2013-08-16 07:39:00,
2013-08-16 03:44:00,66.3,64.8,30.03,NNE,29,10.0,14.0,95,0.00,,---,0.00,VWS V14.01,2013-08-16 07:44:00,
2013-08-16 03:49:00,66.5,65.0,30.03,NE,35,10.0,14.0,95,0.00,,---,0.00,VWS V14.01,2013-08-16 07:49:00,
2013-08-16 03:54:00,66.4,64.9,30.03,NNE,23,9.0,14.0,95,0.00,,---,0.00,VWS V14.01,2013-08-16 07:54:00,
2013-08-16 03:59:00,66.5,65.0,30.03,NE,52,6.0,11.0,95,0.00,,---,0.00,VWS V14.01,2013-08-16 07:59:00,
2013-08-16 04:05:00,66.5,65.0,30.03,ENE,61,8.0,11.0,95,0.00,,---,0.00,VWS V14.01,2013-08-16 08:05:00,
2013-08-16 04:10:00,66.7,65.2,30.03,NE,44,11.0,11.0,95,0.00,,---,0.00,VWS V14.01,2013-08-16 08:10:00,
2013-08-16 04:15:00,66.7,65.2,30.03,NE,56,12.0,12.0,95,0.00,,---,0.00,VWS V14.01,2013-08-16 08:15:00,
2013-08-16 04:20:00,66.8,65.3,30.03,ENE,63,10.0,12.0,95,0.00,,---,0.00,VWS V14.01,2013-08-16 08:20:00,
2013-08-16 04:25:00,66.9,65.4,30.03,NE,56,10.0,14.0,95,0.00,,---,0.00,VWS V14.01,2013-08-16 08:25:00,
2013-08-16 04:30:00,66.8,65.3,30.03,NE,41,13.0,13.0,95,0.00,,---,0.00,VWS V14.01,2013-08-16 08:30:00,
2013-08-16 04:35:00,66.8,65.3,30.02,NE,55,12.0,13.0,95,0.00,,---,0.00,VWS V14.01,2013-08-16 08:35:00,
2013-08-16 04:40:00,66.9,65.7,30.03,NE,38,11.0,13.0,96,0.00,,---,0.00,VWS V14.01,2013-08-16 08:40:00,
2013-08-16 04:45:00,67.0,65.8,30.03,NE,40,10.0,13.0,96,0.00,,---,0.00,VWS V14.01,2013-08-16 08:45:00,
2013-08-16 04:50:00,66.9,65.7,30.03,NE,46,7.0,13.0,96,0.00,,---,0.00,VWS V14.01,2013-08-16 08:50:00,
2013-08-16 04:55:00,66.9,65.7,30.04,NNE,30,7.0,13.0,96,0.00,,---,0.00,VWS V14.01,2013-08-16 08:55:00,
2013-08-16 05:00:00,67.1,65.9,30.04,NNE,28,10.0,11.0,96,0.00,,---,0.00,VWS V14.01,2013-08-16 09:00:00,
2013-08-16 05:05:00,67.1,65.9,30.04,NE,36,10.0,12.0,96,0.00,,---,0.00,VWS V14.01,2013-08-16 09:05:00,
2013-08-16 05:10:00,66.9,65.7,30.04,NE,38,7.0,12.0,96,0.00,,---,0.00,VWS V14.01,2013-08-16 09:10:00,
2013-08-16 05:15:00,67.0,65.8,30.03,NE,34,11.0,12.0,96,0.00,,---,0.00,VWS V14.01,2013-08-16 09:15:00,
2013-08-16 05:21:00,67.1,65.9,30.03,NE,55,8.0,12.0,96,0.00,,---,0.00,VWS V14.01,2013-08-16 09:21:00,
2013-08-16 05:26:00,67.2,66.0,30.03,NE,38,10.0,12.0,96,0.00,,---,0.00,VWS V14.01,2013-08-16 09:26:00,
2013-08-16 05:31:00,67.3,66.1,30.04,NNE,22,9.0,13.0,96,0.00,,---,0.00,VWS V14.01,2013-08-16 09:31:00,
2013-08-16 05:36:00,67.3,66.1,30.04,NE,36,7.0,13.0,96,0.00,,---,0.00,VWS V14.01,2013-08-16 09:36:00,
2013-08-16 05:41:00,67.4,66.2,30.04,NE,42,8.0,13.0,96,0.00,,---,0.00,VWS V14.01,2013-08-16 09:41:00,
2013-08-16 05:46:00,67.4,66.2,30.04,NE,34,4.0,13.0,96,0.00,,---,0.00,VWS V14.01,2013-08-16 09:46:00,
2013-08-16 05:51:00,67.3,66.1,30.05,NE,53,9.0,13.0,96,0.00,,---,0.00,VWS V14.01,2013-08-16 09:51:00,
2013-08-16 05:56:00,67.4,66.2,30.05,NNE,33,6.0,13.0,96,0.00,,---,0.00,VWS V14.01,2013-08-16 09:56:00,
2013-08-16 06:01:00,67.6,66.4,30.05,North,10,10.0,12.0,96,0.00,,---,0.00,VWS V14.01,2013-08-16 10:01:00,
2013-08-16 06:06:00,67.6,66.4,30.05,NNE,19,9.0,12.0,96,0.00,,---,0.00,VWS V14.01,2013-08-16 10:06:00,
2013-08-16 06:11:00,67.4,65.9,30.05,NNE,28,5.0,12.0,95,0.00,,---,0.00,VWS V14.01,2013-08-16 10:11:00,
2013-08-16 06:16:00,67.5,66.3,30.05,NNE,30,7.0,12.0,96,0.00,,---,0.00,VWS V14.01,2013-08-16 10:16:00,
2013-08-16 06:21:00,67.4,66.2,30.05,NNE,17,6.0,12.0,96,0.00,,---,0.00,VWS V14.01,2013-08-16 10:21:00,
2013-08-16 06:26:00,67.4,66.2,30.06,NNE,25,6.0,12.0,96,0.00,,---,0.00,VWS V14.01,2013-08-16 10:26:00,
2013-08-16 06:31:00,67.6,66.4,30.06,NE,36,9.0,10.0,96,0.00,,---,0.00,VWS V14.01,2013-08-16 10:31:00,
2013-08-16 06:37:00,67.6,66.4,30.06,ENE,61,9.0,11.0,96,0.00,,---,0.00,VWS V14.01,2013-08-16 10:37:00,
2013-08-16 06:42:00,67.6,66.4,30.06,NE,55,8.0,11.0,96,0.00,,---,0.00,VWS V14.01,2013-08-16 10:42:00,
2013-08-16 06:47:00,67.6,66.4,30.06,ENE,65,9.0,11.0,96,0.00,,---,0.00,VWS V14.01,2013-08-16 10:47:00,
2013-08-16 06:52:00,67.8,66.6,30.06,ENE,63,9.0,11.0,96,0.00,,---,0.00,VWS V14.01,2013-08-16 10:52:00,
2013-08-16 06:57:00,67.7,66.5,30.06,NE,48,5.0,11.0,96,0.00,,---,0.00,VWS V14.01,2013-08-16 10:57:00,
2013-08-16 07:02:00,67.8,66.6,30.06,ENE,72,10.0,12.0,96,0.00,,---,0.00,VWS V14.01,2013-08-16 11:02:00,
2013-08-16 07:07:00,67.9,66.7,30.06,ENE,62,11.0,12.0,96,0.00,,---,0.00,VWS V14.01,2013-08-16 11:07:00,
2013-08-16 07:12:00,68.0,66.8,30.06,ENE,61,6.0,12.0,96,0.00,,---,0.00,VWS V14.01,2013-08-16 11:12:00,
2013-08-16 07:17:00,68.1,66.6,30.06,NE,47,7.0,12.0,95,0.00,,---,0.00,VWS V14.01,2013-08-16 11:17:00,
2013-08-16 07:22:00,68.0,66.5,30.07,ENE,67,6.0,12.0,95,0.00,,---,0.00,VWS V14.01,2013-08-16 11:22:00,
2013-08-16 07:27:00,67.9,66.4,30.06,ENE,61,10.0,12.0,95,0.00,,---,0.00,VWS V14.01,2013-08-16 11:27:00,
2013-08-16 07:32:00,68.1,66.6,30.06,NE,50,7.0,12.0,95,0.00,,---,0.00,VWS V14.01,2013-08-16 11:32:00,
2013-08-16 07:37:00,68.1,66.6,30.06,ENE,69,7.0,13.0,95,0.00,,---,0.00,VWS V14.01,2013-08-16 11:37:00,
2013-08-16 07:42:00,68.3,67.1,30.06,ENE,66,11.0,13.0,96,0.00,,---,0.00,VWS V14.01,2013-08-16 11:42:00,
2013-08-16 07:47:00,68.3,66.8,30.06,NE,53,11.0,13.0,95,0.00,,---,0.00,VWS V14.01,2013-08-16 11:47:00,
2013-08-16 07:53:00,68.2,66.7,30.06,NE,48,6.0,13.0,95,0.00,,---,0.00,VWS V14.01,2013-08-16 11:53:00,
2013-08-16 07:58:00,68.2,66.7,30.07,ENE,66,10.0,10.0,95,0.00,,---,0.00,VWS V14.01,2013-08-16 11:58:00,
2013-08-16 08:03:00,68.3,66.8,30.07,NE,49,6.0,10.0,95,0.00,,---,0.00,VWS V14.01,2013-08-16 12:03:00,
2013-08-16 08:08:00,68.3,66.8,30.07,NE,55,9.0,10.0,95,0.00,,---,0.00,VWS V14.01,2013-08-16 12:08:00,
2013-08-16 08:13:00,68.3,66.8,30.07,NE,44,8.0,10.0,95,0.00,,---,0.00,VWS V14.01,2013-08-16 12:13:00,
2013-08-16 08:18:00,68.3,66.8,30.08,ENE,60,9.0,11.0,95,0.00,,---,0.00,VWS V14.01,2013-08-16 12:18:00,
2013-08-16 08:23:00,68.4,66.9,30.08,ENE,60,8.0,11.0,95,0.00,,---,0.00,VWS V14.01,2013-08-16 12:23:00,
2013-08-16 08:28:00,68.5,67.0,30.08,NE,44,10.0,11.0,95,0.00,,---,0.00,VWS V14.01,2013-08-16 12:28:00,
2013-08-16 08:33:00,68.6,67.1,30.08,NNE,25,6.0,11.0,95,0.00,,---,0.00,VWS V14.01,2013-08-16 12:33:00,
2013-08-16 08:38:00,68.6,67.1,30.08,NE,36,9.0,11.0,95,0.00,,---,0.00,VWS V14.01,2013-08-16 12:38:00,
2013-08-16 08:43:00,68.6,67.1,30.08,NE,39,10.0,12.0,95,0.00,,---,0.00,VWS V14.01,2013-08-16 12:43:00,
2013-08-16 08:48:00,68.7,67.2,30.08,NNE,30,7.0,12.0,95,0.00,,---,0.00,VWS V14.01,2013-08-16 12:48:00,
2013-08-16 08:53:00,68.8,67.3,30.09,NNE,30,10.0,12.0,95,0.00,,---,0.00,VWS V14.01,2013-08-16 12:53:00,
2013-08-16 08:58:00,68.6,66.8,30.08,NE,40,5.0,10.0,94,0.00,,---,0.00,VWS V14.01,2013-08-16 12:58:00,
2013-08-16 09:04:00,68.7,66.9,30.08,North,11,9.0,10.0,94,0.00,,---,0.00,VWS V14.01,2013-08-16 13:04:00,
2013-08-16 09:09:00,68.7,66.9,30.08,North,5,7.0,11.0,94,0.00,,---,0.00,VWS V14.01,2013-08-16 13:09:00,
2013-08-16 09:14:00,68.8,67.0,30.09,NE,50,7.0,11.0,94,0.00,,---,0.00,VWS V14.01,2013-08-16 13:14:00,
2013-08-16 09:19:00,68.9,67.1,30.09,NE,40,6.0,11.0,94,0.00,,---,0.00,VWS V14.01,2013-08-16 13:19:00,
2013-08-16 09:24:00,69.1,67.3,30.08,NNE,30,9.0,11.0,94,0.00,,---,0.00,VWS V14.01,2013-08-16 13:24:00,
2013-08-16 09:29:00,69.1,67.3,30.09,ENE,71,5.0,7.0,94,0.00,,---,0.00,VWS V14.01,2013-08-16 13:29:00,
2013-08-16 09:34:00,69.2,67.4,30.09,NE,53,8.0,10.0,94,0.00,,---,0.00,VWS V14.01,2013-08-16 13:34:00,
2013-08-16 09:39:00,69.2,67.4,30.09,ENE,69,8.0,10.0,94,0.00,,---,0.00,VWS V14.01,2013-08-16 13:39:00,
2013-08-16 09:44:00,69.4,67.6,30.09,ENE,57,8.0,10.0,94,0.00,,---,0.00,VWS V14.01,2013-08-16 13:44:00,
2013-08-16 09:49:00,69.4,67.6,30.09,NE,51,9.0,10.0,94,0.00,,---,0.00,VWS V14.01,2013-08-16 13:49:00,
2013-08-16 09:54:00,69.5,67.7,30.09,NE,51,11.0,11.0,94,0.00,,---,0.00,VWS V14.01,2013-08-16 13:54:00,
2013-08-16 09:59:00,69.6,67.8,30.09,ENE,69,9.0,10.0,94,0.00,,---,0.00,VWS V14.01,2013-08-16 13:59:00,
2013-08-16 10:04:00,69.8,67.7,30.09,ENE,57,5.0,11.0,93,0.00,,---,0.00,VWS V14.01,2013-08-16 14:04:00,
2013-08-16 10:09:00,69.9,67.8,30.09,ENE,74,9.0,12.0,93,0.00,,---,0.00,VWS V14.01,2013-08-16 14:09:00,
2013-08-16 10:15:00,70.0,67.9,30.09,ENE,70,5.0,13.0,93,0.00,,---,0.00,VWS V14.01,2013-08-16 14:15:00,
2013-08-16 10:20:00,70.0,67.9,30.09,ENE,69,9.0,13.0,93,0.00,,---,0.00,VWS V14.01,2013-08-16 14:20:00,
2013-08-16 10:25:00,70.1,68.0,30.09,NE,51,9.0,13.0,93,0.00,,---,0.00,VWS V14.01,2013-08-16 14:25:00,
2013-08-16 10:30:00,70.2,68.1,30.09,ENE,59,7.0,9.0,93,0.00,,---,0.00,VWS V14.01,2013-08-16 14:30:00,
2013-08-16 10:35:00,70.2,67.8,30.09,ENE,57,7.0,9.0,92,0.00,,---,0.00,VWS V14.01,2013-08-16 14:35:00,
2013-08-16 10:40:00,70.2,67.8,30.09,ENE,71,11.0,12.0,92,0.00,,---,0.00,VWS V14.01,2013-08-16 14:40:00,
2013-08-16 10:45:00,70.3,67.9,30.09,ENE,61,7.0,13.0,92,0.00,,---,0.00,VWS V14.01,2013-08-16 14:45:00,
2013-08-16 10:50:00,70.4,68.0,30.09,NE,46,11.0,13.0,92,0.00,,---,0.00,VWS V14.01,2013-08-16 14:50:00,
2013-08-16 10:55:00,70.6,68.2,30.10,ENE,77,6.0,13.0,92,0.00,,---,0.00,VWS V14.01,2013-08-16 14:55:00,
2013-08-16 11:00:00,70.7,68.3,30.10,ENE,69,6.0,11.0,92,0.00,,---,0.00,VWS V14.01,2013-08-16 15:00:00,
2013-08-16 11:05:00,70.8,68.4,30.10,East,82,4.0,11.0,92,0.00,,---,0.00,VWS V14.01,2013-08-16 15:05:00,
2013-08-16 11:10:00,70.8,68.4,30.10,ENE,65,9.0,11.0,92,0.00,,---,0.00,VWS V14.01,2013-08-16 15:10:00,
2013-08-16 11:15:00,70.8,68.1,30.10,NE,48,8.0,12.0,91,0.00,,---,0.00,VWS V14.01,2013-08-16 15:15:00,
2013-08-16 11:21:00,70.8,68.1,30.09,ENE,61,7.0,12.0,91,0.00,,---,0.00,VWS V14.01,2013-08-16 15:21:00,
2013-08-16 11:26:00,70.8,68.1,30.10,ENE,65,9.0,12.0,91,0.00,,---,0.00,VWS V14.01,2013-08-16 15:26:00,
2013-08-16 11:31:00,70.9,68.2,30.10,NE,55,10.0,10.0,91,0.00,,---,0.00,VWS V14.01,2013-08-16 15:31:00,
2013-08-16 11:36:00,71.0,68.2,30.09,ENE,58,9.0,11.0,91,0.00,,---,0.00,VWS V14.01,2013-08-16 15:36:00,
2013-08-16 11:41:00,71.2,68.4,30.10,East,85,9.0,11.0,91,0.00,,---,0.00,VWS V14.01,2013-08-16 15:41:00,
2013-08-16 11:46:00,71.2,68.4,30.10,ENE,61,11.0,11.0,91,0.00,,---,0.00,VWS V14.01,2013-08-16 15:46:00,
2013-08-16 11:51:00,71.3,68.5,30.10,ENE,73,4.0,11.0,91,0.00,,---,0.00,VWS V14.01,2013-08-16 15:51:00,
2013-08-16 11:56:00,71.4,68.6,30.09,ENE,78,3.0,11.0,91,0.00,,---,0.00,VWS V14.01,2013-08-16 15:56:00,
2013-08-16 12:01:00,71.5,68.4,30.09,ENE,62,7.0,10.0,90,0.00,,---,0.00,VWS V14.01,2013-08-16 16:01:00,
2013-08-16 12:06:00,71.5,68.4,30.09,ENE,66,8.0,10.0,90,0.00,,---,0.00,VWS V14.01,2013-08-16 16:06:00,
2013-08-16 12:11:00,71.7,68.6,30.09,NE,56,6.0,10.0,90,0.00,,---,0.00,VWS V14.01,2013-08-16 16:11:00,
2013-08-16 12:16:00,71.7,68.6,30.09,ENE,59,6.0,10.0,90,0.00,,---,0.00,VWS V14.01,2013-08-16 16:16:00,
2013-08-16 12:22:00,71.7,68.6,30.09,ENE,66,7.0,10.0,90,0.00,,---,0.00,VWS V14.01,2013-08-16 16:22:00,
2013-08-16 12:27:00,71.7,68.6,30.09,ENE,57,7.0,10.0,90,0.00,,---,0.00,VWS V14.01,2013-08-16 16:27:00,
2013-08-16 12:32:00,71.8,68.7,30.09,ENE,63,5.0,10.0,90,0.00,,---,0.00,VWS V14.01,2013-08-16 16:32:00,
2013-08-16 12:37:00,71.8,68.7,30.09,ENE,65,5.0,10.0,90,0.00,,---,0.00,VWS V14.01,2013-08-16 16:37:00,
2013-08-16 12:42:00,71.9,68.8,30.09,East,92,7.0,10.0,90,0.00,,---,0.00,VWS V14.01,2013-08-16 16:42:00,
2013-08-16 12:47:00,72.0,68.9,30.09,ENE,69,4.0,10.0,90,0.00,,---,0.00,VWS V14.01,2013-08-16 16:47:00,
2013-08-16 12:52:00,71.9,68.8,30.09,NE,52,5.0,10.0,90,0.00,,---,0.00,VWS V14.01,2013-08-16 16:52:00,
2013-08-16 12:57:00,72.1,69.0,30.09,ENE,68,6.0,10.0,90,0.00,,---,0.00,VWS V14.01,2013-08-16 16:57:00,
2013-08-16 13:02:00,72.1,68.7,30.09,NE,55,3.0,8.0,89,0.00,,---,0.00,VWS V14.01,2013-08-16 17:02:00,
2013-08-16 13:07:00,72.1,68.7,30.08,NE,45,6.0,10.0,89,0.00,,---,0.00,VWS V14.01,2013-08-16 17:07:00,
2013-08-16 13:12:00,72.1,69.0,30.08,NE,51,7.0,10.0,90,0.00,,---,0.00,VWS V14.01,2013-08-16 17:12:00,
2013-08-16 13:18:00,72.1,69.0,30.08,NE,46,6.0,10.0,90,0.00,,---,0.00,VWS V14.01,2013-08-16 17:18:00,
2013-08-16 13:23:00,72.0,68.9,30.08,NNE,28,10.0,10.0,90,0.00,,---,0.00,VWS V14.01,2013-08-16 17:23:00,
2013-08-16 13:28:00,72.0,68.9,30.08,NE,38,6.0,8.0,90,0.00,,---,0.00,VWS V14.01,2013-08-16 17:28:00,
2013-08-16 13:33:00,72.0,68.9,30.08,NNE,25,10.0,11.0,90,0.00,,---,0.00,VWS V14.01,2013-08-16 17:33:00,
2013-08-16 13:38:00,71.8,68.7,30.09,NE,40,10.0,11.0,90,0.00,,---,0.00,VWS V14.01,2013-08-16 17:38:00,
2013-08-16 13:43:00,71.8,68.7,30.08,NE,44,7.0,11.0,90,0.00,,---,0.00,VWS V14.01,2013-08-16 17:43:00,
2013-08-16 13:48:00,71.7,68.6,30.08,NE,50,9.0,12.0,90,0.00,,---,0.00,VWS V14.01,2013-08-16 17:48:00,
2013-08-16 13:53:00,71.7,68.6,30.08,NNE,14,6.0,12.0,90,0.00,,---,0.00,VWS V14.01,2013-08-16 17:53:00,
2013-08-16 13:58:00,71.8,69.0,30.08,NNE,24,11.0,11.0,91,0.00,,---,0.00,VWS V14.01,2013-08-16 17:58:00,
2013-08-16 14:03:00,71.8,69.0,30.08,NNE,15,11.0,12.0,91,0.00,,---,0.00,VWS V14.01,2013-08-16 18:03:00,
2013-08-16 14:08:00,71.8,69.0,30.08,NE,43,9.0,15.0,91,0.00,,---,0.00,VWS V14.01,2013-08-16 18:08:00,
2013-08-16 14:13:00,71.8,68.7,30.07,NE,34,11.0,15.0,90,0.00,,---,0.00,VWS V14.01,2013-08-16 18:13:00,
2013-08-16 14:18:00,71.8,68.7,30.07,NNE,31,10.0,15.0,90,0.00,,---,0.00,VWS V14.01,2013-08-16 18:18:00,
2013-08-16 14:23:00,72.0,68.9,30.08,NE,41,11.0,15.0,90,0.00,,---,0.00,VWS V14.01,2013-08-16 18:23:00,
2013-08-16 14:29:00,72.1,69.0,30.08,ENE,63,6.0,9.0,90,0.00,,---,0.00,VWS V14.01,2013-08-16 18:29:00,
2013-08-16 14:34:00,72.3,69.2,30.07,ENE,67,10.0,11.0,90,0.00,,---,0.00,VWS V14.01,2013-08-16 18:34:00,
2013-08-16 14:39:00,72.4,69.3,30.08,ENE,74,6.0,11.0,90,0.00,,---,0.00,VWS V14.01,2013-08-16 18:39:00,
2013-08-16 14:44:00,72.4,69.3,30.08,ENE,71,6.0,11.0,90,0.00,,---,0.00,VWS V14.01,2013-08-16 18:44:00,
2013-08-16 14:49:00,72.4,69.0,30.07,ENE,61,6.0,11.0,89,0.00,,---,0.00,VWS V14.01,2013-08-16 18:49:00,
2013-08-16 14:54:00,72.5,69.4,30.07,NE,51,7.0,11.0,90,0.00,,---,0.00,VWS V14.01,2013-08-16 18:54:00,
2013-08-16 14:59:00,72.5,69.1,30.07,ENE,63,6.0,7.0,89,0.00,,---,0.00,VWS V14.01,2013-08-16 18:59:00,
2013-08-16 15:04:00,72.7,69.6,30.07,ENE,65,9.0,10.0,90,0.00,,---,0.00,VWS V14.01,2013-08-16 19:04:00,
2013-08-16 15:09:00,72.7,69.3,30.07,East,84,9.0,12.0,89,0.00,,---,0.00,VWS V14.01,2013-08-16 19:09:00,
2013-08-16 15:14:00,72.6,69.2,30.06,NE,53,11.0,13.0,89,0.00,,---,0.00,VWS V14.01,2013-08-16 19:14:00,
2013-08-16 15:19:00,72.4,69.0,30.06,ENE,64,7.0,13.0,89,0.00,,---,0.00,VWS V14.01,2013-08-16 19:19:00,
2013-08-16 15:24:00,72.3,69.2,30.06,ENE,63,11.0,13.0,90,0.00,,---,0.00,VWS V14.01,2013-08-16 19:24:00,
2013-08-16 15:29:00,72.4,69.3,30.06,ENE,62,11.0,11.0,90,0.00,,---,0.00,VWS V14.01,2013-08-16 19:29:00,
2013-08-16 15:38:00,72.6,69.2,30.06,East,96,5.0,11.0,89,0.00,,---,0.00,VWS V14.01,2013-08-16 19:38:00,
2013-08-16 15:43:00,72.8,69.4,30.06,ENE,60,8.0,12.0,89,0.00,,---,0.00,VWS V14.01,2013-08-16 19:43:00,
2013-08-16 15:49:00,72.9,69.5,30.06,ENE,61,7.0,12.0,89,0.00,,---,0.00,VWS V14.01,2013-08-16 19:49:00,
2013-08-16 15:54:00,72.7,69.3,30.06,NE,53,9.0,12.0,89,0.00,,---,0.00,VWS V14.01,2013-08-16 19:54:00,
2013-08-16 15:59:00,72.5,69.1,30.07,NE,50,8.0,9.0,89,0.00,,---,0.00,VWS V14.01,2013-08-16 19:59:00,
2013-08-16 16:04:00,72.4,69.0,30.07,NE,39,12.0,12.0,89,0.00,,---,0.00,VWS V14.01,2013-08-16 20:04:00,
2013-08-16 16:09:00,72.4,69.0,30.07,NE,48,7.0,12.0,89,0.00,,---,0.00,VWS V14.01,2013-08-16 20:09:00,
2013-08-16 16:14:00,72.4,69.0,30.07,ENE,63,9.0,12.0,89,0.00,,---,0.00,VWS V14.01,2013-08-16 20:14:00,
2013-08-16 16:19:00,72.5,69.1,30.07,ENE,60,10.0,12.0,89,0.00,,---,0.00,VWS V14.01,2013-08-16 20:19:00,
2013-08-16 16:24:00,72.4,69.0,30.08,East,92,12.0,13.0,89,0.00,,---,0.00,VWS V14.01,2013-08-16 20:24:00,
2013-08-16 16:29:00,72.5,69.1,30.07,East,100,8.0,10.0,89,0.00,,---,0.00,VWS V14.01,2013-08-16 20:29:00,
2013-08-16 16:34:00,72.5,69.1,30.07,NE,51,6.0,13.0,89,0.00,,---,0.00,VWS V14.01,2013-08-16 20:34:00,
2013-08-16 16:39:00,72.6,69.2,30.07,East,90,5.0,13.0,89,0.00,,---,0.00,VWS V14.01,2013-08-16 20:39:00,
2013-08-16 16:44:00,72.6,68.8,30.07,East,86,6.0,13.0,88,0.00,,---,0.00,VWS V14.01,2013-08-16 20:44:00,
2013-08-16 16:49:00,72.8,69.0,30.07,ESE,103,6.0,13.0,88,0.00,,---,0.00,VWS V14.01,2013-08-16 20:49:00,
2013-08-16 16:55:00,72.9,69.1,30.07,NE,50,7.0,13.0,88,0.00,,---,0.00,VWS V14.01,2013-08-16 20:55:00,
2013-08-16 17:00:00,72.9,69.1,30.07,ENE,67,11.0,12.0,88,0.00,,---,0.00,VWS V14.01,2013-08-16 21:00:00,
2013-08-16 17:05:00,72.8,69.4,30.07,NE,52,11.0,12.0,89,0.00,,---,0.00,VWS V14.01,2013-08-16 21:05:00,
2013-08-16 17:10:00,72.6,69.2,30.07,ENE,67,12.0,12.0,89,0.00,,---,0.00,VWS V14.01,2013-08-16 21:10:00,
2013-08-16 17:15:00,72.5,69.1,30.08,ENE,71,10.0,12.0,89,0.00,,---,0.00,VWS V14.01,2013-08-16 21:15:00,
2013-08-16 17:20:00,72.6,69.2,30.08,NNE,32,5.0,12.0,89,0.00,,---,0.00,VWS V14.01,2013-08-16 21:20:00,
2013-08-16 17:25:00,72.5,69.1,30.08,NE,54,10.0,12.0,89,0.00,,---,0.00,VWS V14.01,2013-08-16 21:25:00,
2013-08-16 17:30:00,72.4,69.0,30.08,ENE,62,9.0,12.0,89,0.00,,---,0.00,VWS V14.01,2013-08-16 21:30:00,
2013-08-16 17:35:00,72.5,69.1,30.08,NE,55,10.0,12.0,89,0.00,,---,0.00,VWS V14.01,2013-08-16 21:35:00,
2013-08-16 17:40:00,72.4,69.0,30.08,East,79,7.0,12.0,89,0.00,,---,0.00,VWS V14.01,2013-08-16 21:40:00,
2013-08-16 17:45:00,72.4,69.0,30.08,ENE,74,6.0,12.0,89,0.00,,---,0.00,VWS V14.01,2013-08-16 21:45:00,
2013-08-16 17:50:00,72.4,69.0,30.08,ENE,68,13.0,13.0,89,0.00,,---,0.00,VWS V14.01,2013-08-16 21:50:00,
2013-08-16 17:55:00,72.3,68.9,30.08,ENE,64,8.0,13.0,89,0.00,,---,0.00,VWS V14.01,2013-08-16 21:55:00,
2013-08-16 18:01:00,72.3,68.9,30.07,ENE,74,5.0,12.0,89,0.00,,---,0.00,VWS V14.01,2013-08-16 22:01:00,
2013-08-16 18:06:00,72.3,68.9,30.07,ENE,62,10.0,13.0,89,0.00,,---,0.00,VWS V14.01,2013-08-16 22:06:00,
2013-08-16 18:11:00,72.3,68.9,30.07,NE,45,5.0,14.0,89,0.00,,---,0.00,VWS V14.01,2013-08-16 22:11:00,
2013-08-16 18:16:00,72.3,68.9,30.07,ENE,75,9.0,14.0,89,0.00,,---,0.00,VWS V14.01,2013-08-16 22:16:00,
2013-08-16 18:21:00,72.2,68.8,30.08,ENE,68,8.0,14.0,89,0.00,,---,0.00,VWS V14.01,2013-08-16 22:21:00,
2013-08-16 18:26:00,72.3,68.9,30.08,ENE,72,5.0,14.0,89,0.00,,---,0.00,VWS V14.01,2013-08-16 22:26:00,
2013-08-16 18:31:00,72.2,68.8,30.08,East,82,10.0,12.0,89,0.00,,---,0.00,VWS V14.01,2013-08-16 22:31:00,
2013-08-16 18:36:00,72.3,68.9,30.08,East,89,9.0,12.0,89,0.00,,---,0.00,VWS V14.01,2013-08-16 22:36:00,
2013-08-16 18:41:00,72.3,68.9,30.07,East,88,7.0,14.0,89,0.00,,---,0.00,VWS V14.01,2013-08-16 22:41:00,
2013-08-16 18:46:00,72.2,68.4,30.07,ENE,68,11.0,14.0,88,0.00,,---,0.00,VWS V14.01,2013-08-16 22:46:00,
2013-08-16 18:51:00,72.2,68.4,30.07,East,94,8.0,14.0,88,0.00,,---,0.00,VWS V14.01,2013-08-16 22:51:00,
2013-08-16 18:56:00,72.2,68.4,30.07,ENE,61,7.0,14.0,88,0.00,,---,0.00,VWS V14.01,2013-08-16 22:56:00,
2013-08-16 19:01:00,72.2,68.4,30.07,East,83,10.0,11.0,88,0.01,,---,0.01,VWS V14.01,2013-08-16 23:01:00,
2013-08-16 19:06:00,72.1,68.7,30.08,ENE,72,8.0,12.0,89,0.01,,---,0.01,VWS V14.01,2013-08-16 23:06:00,
2013-08-16 19:11:00,72.1,68.7,30.08,ENE,74,8.0,12.0,89,0.01,,---,0.01,VWS V14.01,2013-08-16 23:11:00,
2013-08-16 19:17:00,72.1,69.0,30.08,NE,53,6.0,12.0,90,0.01,,---,0.01,VWS V14.01,2013-08-16 23:17:00,
2013-08-16 19:22:00,72.1,69.0,30.08,NE,42,11.0,12.0,90,0.01,,---,0.01,VWS V14.01,2013-08-16 23:22:00,
2013-08-16 19:27:00,72.1,69.0,30.08,ENE,61,8.0,12.0,90,0.01,,---,0.01,VWS V14.01,2013-08-16 23:27:00,
2013-08-16 19:32:00,72.0,69.2,30.08,NE,56,9.0,11.0,91,0.01,,---,0.01,VWS V14.01,2013-08-16 23:32:00,
2013-08-16 19:37:00,71.8,68.7,30.08,ENE,59,10.0,11.0,90,0.01,,---,0.01,VWS V14.01,2013-08-16 23:37:00,
2013-08-16 19:42:00,71.8,69.0,30.08,ENE,57,8.0,11.0,91,0.01,,---,0.01,VWS V14.01,2013-08-16 23:42:00,
2013-08-16 19:47:00,71.6,68.8,30.09,NE,51,6.0,11.0,91,0.01,,---,0.01,VWS V14.01,2013-08-16 23:47:00,
2013-08-16 19:52:00,71.7,68.9,30.08,NE,48,5.0,11.0,91,0.01,,---,0.01,VWS V14.01,2013-08-16 23:52:00,
2013-08-16 19:57:00,71.7,68.9,30.08,NE,35,6.0,11.0,91,0.01,,---,0.01,VWS V14.01,2013-08-16 23:57:00,
2013-08-16 20:02:00,71.7,68.9,30.08,NNE,21,6.0,10.0,91,0.01,,---,0.01,VWS V14.01,2013-08-17 00:02:00,
2013-08-16 20:07:00,71.5,69.1,30.08,North,360,10.0,10.0,92,0.01,,---,0.01,VWS V14.01,2013-08-17 00:07:00,
2013-08-16 20:12:00,71.3,68.9,30.09,North,360,9.0,10.0,92,0.01,,---,0.01,VWS V14.01,2013-08-17 00:12:00,
2013-08-16 20:17:00,70.8,68.7,30.09,North,360,9.0,11.0,93,0.01,,---,0.01,VWS V14.01,2013-08-17 00:17:00,
2013-08-16 20:23:00,70.7,68.6,30.09,North,350,9.0,12.0,93,0.01,,---,0.01,VWS V14.01,2013-08-17 00:23:00,
2013-08-16 20:28:00,70.5,68.4,30.09,North,11,11.0,13.0,93,0.00,,---,0.01,VWS V14.01,2013-08-17 00:28:00,
2013-08-16 20:33:00,70.4,68.6,30.09,North,5,7.0,13.0,94,0.00,,---,0.01,VWS V14.01,2013-08-17 00:33:00,
2013-08-16 20:38:00,70.0,68.2,30.09,North,5,10.0,13.0,94,0.00,,---,0.01,VWS V14.01,2013-08-17 00:38:00,
2013-08-16 20:43:00,69.9,68.1,30.09,NNE,12,9.0,13.0,94,0.00,,---,0.01,VWS V14.01,2013-08-17 00:43:00,
2013-08-16 20:48:00,69.9,68.1,30.09,North,360,10.0,13.0,94,0.00,,---,0.01,VWS V14.01,2013-08-17 00:48:00,
2013-08-16 20:53:00,69.7,67.9,30.09,NE,38,4.0,13.0,94,0.00,,---,0.01,VWS V14.01,2013-08-17 00:53:00,
2013-08-16 20:58:00,69.7,67.9,30.09,NNE,32,11.0,11.0,94,0.00,,---,0.01,VWS V14.01,2013-08-17 00:58:00,
2013-08-16 21:03:00,69.7,67.9,30.10,NE,49,6.0,11.0,94,0.01,,---,0.02,VWS V14.01,2013-08-17 01:03:00,
2013-08-16 21:08:00,69.6,68.1,30.10,NE,41,6.0,11.0,95,0.01,,---,0.02,VWS V14.01,2013-08-17 01:08:00,
2013-08-16 21:13:00,69.7,67.9,30.10,NE,56,6.0,11.0,94,0.01,,---,0.02,VWS V14.01,2013-08-17 01:13:00,
2013-08-16 21:18:00,69.8,68.3,30.10,NE,51,7.0,11.0,95,0.01,,---,0.02,VWS V14.01,2013-08-17 01:18:00,
2013-08-16 21:23:00,69.8,68.0,30.10,NE,55,7.0,11.0,94,0.01,,---,0.02,VWS V14.01,2013-08-17 01:23:00,
2013-08-16 21:28:00,69.9,68.4,30.10,East,87,9.0,10.0,95,0.01,,---,0.02,VWS V14.01,2013-08-17 01:28:00,
2013-08-16 21:33:00,69.7,67.9,30.10,East,80,7.0,12.0,94,0.01,,---,0.02,VWS V14.01,2013-08-17 01:33:00,
2013-08-16 21:39:00,69.6,67.8,30.11,East,92,5.0,12.0,94,0.01,,---,0.02,VWS V14.01,2013-08-17 01:39:00,
2013-08-16 21:44:00,69.7,67.9,30.11,ESE,110,5.0,12.0,94,0.01,,---,0.02,VWS V14.01,2013-08-17 01:44:00,
2013-08-16 21:49:00,69.8,68.0,30.11,East,93,7.0,12.0,94,0.01,,---,0.02,VWS V14.01,2013-08-17 01:49:00,
2013-08-16 21:54:00,69.9,68.1,30.12,ESE,109,11.0,13.0,94,0.01,,---,0.02,VWS V14.01,2013-08-17 01:54:00,
2013-08-16 21:59:00,70.1,68.3,30.11,ESE,117,5.0,11.0,94,0.01,,---,0.02,VWS V14.01,2013-08-17 01:59:00,
2013-08-16 22:04:00,70.3,68.5,30.11,East,89,8.0,11.0,94,0.01,,---,0.02,VWS V14.01,2013-08-17 02:04:00,
2013-08-16 22:09:00,70.4,68.6,30.11,East,84,12.0,14.0,94,0.01,,---,0.02,VWS V14.01,2013-08-17 02:09:00,
2013-08-16 22:14:00,70.5,68.7,30.11,East,87,6.0,14.0,94,0.01,,---,0.02,VWS V14.01,2013-08-17 02:14:00,
2013-08-16 22:19:00,70.4,68.3,30.11,East,87,7.0,14.0,93,0.01,,---,0.02,VWS V14.01,2013-08-17 02:19:00,
2013-08-16 22:24:00,70.5,68.4,30.11,ENE,78,4.0,14.0,93,0.01,,---,0.02,VWS V14.01,2013-08-17 02:24:00,
2013-08-16 22:29:00,70.6,68.5,30.11,ENE,65,7.0,9.0,93,0.00,,---,0.02,VWS V14.01,2013-08-17 02:29:00,
2013-08-16 22:34:00,70.7,68.6,30.11,ENE,74,6.0,11.0,93,0.00,,---,0.02,VWS V14.01,2013-08-17 02:34:00,
2013-08-16 22:39:00,70.9,68.8,30.11,East,84,5.0,11.0,93,0.00,,---,0.02,VWS V14.01,2013-08-17 02:39:00,
2013-08-16 22:44:00,70.9,68.8,30.10,NE,39,6.0,11.0,93,0.00,,---,0.02,VWS V14.01,2013-08-17 02:44:00,
2013-08-16 22:50:00,70.6,68.5,30.11,NE,56,7.0,11.0,93,0.00,,---,0.02,VWS V14.01,2013-08-17 02:50:00,
2013-08-16 22:55:00,70.3,68.2,30.11,NE,37,11.0,12.0,93,0.00,,---,0.02,VWS V14.01,2013-08-17 02:55:00,
2013-08-16 23:00:00,70.1,68.0,30.11,NE,37,8.0,11.0,93,0.00,,---,0.02,VWS V14.01,2013-08-17 03:00:00,
2013-08-16 23:05:00,70.1,68.0,30.11,NE,45,7.0,12.0,93,0.00,,---,0.02,VWS V14.01,2013-08-17 03:05:00,
2013-08-16 23:10:00,69.9,67.8,30.11,NNE,22,6.0,12.0,93,0.00,,---,0.02,VWS V14.01,2013-08-17 03:10:00,
2013-08-16 23:15:00,69.7,67.9,30.11,NNE,18,10.0,12.0,94,0.00,,---,0.02,VWS V14.01,2013-08-17 03:15:00,
2013-08-16 23:20:00,69.5,67.7,30.11,NNE,24,11.0,13.0,94,0.00,,---,0.02,VWS V14.01,2013-08-17 03:20:00,
2013-08-16 23:25:00,69.5,67.7,30.11,NE,37,11.0,13.0,94,0.00,,---,0.02,VWS V14.01,2013-08-17 03:25:00,
2013-08-16 23:30:00,69.2,67.4,30.11,NE,41,11.0,15.0,94,0.00,,---,0.02,VWS V14.01,2013-08-17 03:30:00,
2013-08-16 23:35:00,69.1,67.3,30.11,NE,35,9.0,15.0,94,0.00,,---,0.02,VWS V14.01,2013-08-17 03:35:00,
2013-08-16 23:40:00,69.0,67.5,30.11,NNE,28,10.0,16.0,95,0.00,,---,0.02,VWS V14.01,2013-08-17 03:40:00,
2013-08-16 23:45:00,69.0,67.5,30.11,NNE,32,16.0,16.0,95,0.00,,---,0.02,VWS V14.01,2013-08-17 03:45:00,
2013-08-16 23:50:00,68.8,67.3,30.11,NE,39,13.0,17.0,95,0.00,,---,0.02,VWS V14.01,2013-08-17 03:50:00,
2013-08-16 23:55:00,68.6,66.8,30.11,NE,50,15.0,17.0,94,0.00,,---,0.02,VWS V14.01,2013-08-17 03:55:00,